Time;durP1;ratioP1;P1;durP2;ratioP2;P2;SDS_P1;SDS_P2;PMS_P1;PMS_P2;Temp;Humidity;BMP_temperature;BMP_pressure;BME280_temperature;BME280_humidity;BME280_pressure;Samples;Min_cycle;Max_cycle;Signal;HPM_P1;HPM_P2
2022/05/26 00:00:10;;;;;;;8.17;3.40;;;15.50;1.00;;;;;;6194854;28;20505;-51
2022/05/26 00:03:13;;;;;;;3.17;3.07;;;15.40;1.00;;;;;;6194143;28;20389;-51
2022/05/26 00:06:20;;;;;;;3.57;3.27;;;15.40;1.00;;;;;;6181033;28;20732;-50
2022/05/26 00:09:23;;;;;;;3.03;2.87;;;15.40;1.00;;;;;;6187031;28;20315;-52
2022/05/26 00:12:26;;;;;;;3.13;3.03;;;15.30;1.00;;;;;;6192752;28;20378;-52
2022/05/26 00:15:30;;;;;;;3.10;2.93;;;15.30;1.00;;;;;;6178097;28;20719;-52
2022/05/26 00:18:32;;;;;;;3.27;3.07;;;15.30;1.00;;;;;;6190621;28;20458;-51
2022/05/26 00:21:36;;;;;;;3.27;3.03;;;15.30;1.00;;;;;;6196007;28;20304;-50
2022/05/26 00:24:41;;;;;;;2.90;2.70;;;15.30;1.00;;;;;;6175782;28;20327;-49
2022/05/26 00:27:43;;;;;;;3.40;3.20;;;15.40;1.00;;;;;;6197036;28;20775;-51
2022/05/26 00:30:48;;;;;;;3.30;3.07;;;15.30;1.00;;;;;;6184105;28;20263;-50
2022/05/26 00:33:51;;;;;;;3.40;3.30;;;15.30;1.00;;;;;;6184250;28;20290;-51
2022/05/26 00:36:55;;;;;;;4.00;3.33;;;15.30;1.00;;;;;;6187180;28;20415;-51
2022/05/26 00:39:58;;;;;;;2.90;2.90;;;15.20;1.00;;;;;;6177310;28;20746;-50
2022/05/26 00:43:00;;;;;;;3.27;3.17;;;15.20;1.00;;;;;;6191504;28;20324;-51
2022/05/26 00:46:10;;;;;;;3.47;2.90;;;15.20;1.00;;;;;;6191213;28;20243;-51
2022/05/26 00:49:20;;;;;;;2.87;2.67;;;15.20;1.00;;;;;;6180748;28;20261;-51
2022/05/26 00:52:31;;;;;;;2.70;2.60;;;15.10;1.00;;;;;;6184850;28;20334;-53
2022/05/26 00:55:40;;;;;;;2.90;2.70;;;15.10;1.00;;;;;;6196179;28;20416;-51
2022/05/26 00:58:47;;;;;;;2.90;2.80;;;15.10;1.00;;;;;;6185217;28;20542;-52
2022/05/26 01:01:50;;;;;;;3.03;2.93;;;15.10;1.00;;;;;;6190756;28;20817;-51
2022/05/26 01:04:56;;;;;;;2.83;2.73;;;15.10;1.00;;;;;;6177608;28;20317;-50
2022/05/26 01:08:01;;;;;;;3.10;2.83;;;15.20;1.00;;;;;;6182060;28;20271;-51
2022/05/26 01:11:04;;;;;;;2.93;2.83;;;15.20;1.00;;;;;;6184012;28;20730;-51
2022/05/26 01:14:11;;;;;;;2.67;2.67;;;15.30;1.00;;;;;;6173186;28;20582;-51
2022/05/26 01:17:25;;;;;;;3.00;2.90;;;15.30;1.00;;;;;;6154592;28;20731;-46
2022/05/26 01:20:39;;;;;;;2.60;2.60;;;15.30;1.00;;;;;;6181687;28;20717;-51
2022/05/26 01:24:14;;;;;;;2.70;2.60;;;15.30;1.00;;;;;;6186865;28;20447;-51
2022/05/26 01:27:26;;;;;;;2.70;2.50;;;15.30;1.00;;;;;;6168504;28;20694;-51
2022/05/26 01:30:40;;;;;;;2.33;2.33;;;15.30;1.00;;;;;;6181983;28;20804;-51
2022/05/26 01:33:49;;;;;;;2.80;2.70;;;15.40;1.00;;;;;;6187217;28;20468;-51
2022/05/26 01:36:59;;;;;;;2.83;2.63;;;15.30;1.00;;;;;;6181728;28;20264;-51
2022/05/26 01:40:08;;;;;;;2.70;2.60;;;15.30;1.00;;;;;;6164022;28;20287;-50
2022/05/26 01:43:16;;;;;;;2.63;2.60;;;15.30;1.00;;;;;;6196137;28;20236;-51
2022/05/26 01:46:26;;;;;;;2.90;2.80;;;15.30;1.00;;;;;;6186744;28;20808;-52
2022/05/26 01:49:40;;;;;;;2.53;2.43;;;15.30;1.00;;;;;;6194557;28;20247;-51
2022/05/26 01:52:49;;;;;;;2.57;2.47;;;15.30;1.00;;;;;;6182730;28;20322;-51
2022/05/26 01:55:56;;;;;;;2.70;2.70;;;15.30;1.00;;;;;;6201490;28;20899;-50
2022/05/26 01:59:06;;;;;;;2.77;2.73;;;15.30;1.00;;;;;;6197593;28;20370;-52
2022/05/26 02:02:15;;;;;;;2.70;2.50;;;15.30;1.00;;;;;;6177046;28;20327;-51
2022/05/26 02:05:23;;;;;;;2.50;2.40;;;15.30;1.00;;;;;;6181516;28;20236;-51
2022/05/26 02:08:49;;;;;;;2.43;2.33;;;15.30;1.00;;;;;;6199385;28;20325;-50
2022/05/26 02:11:57;;;;;;;4.10;2.47;;;15.40;1.00;;;;;;6183596;28;20518;-51
2022/05/26 02:15:04;;;;;;;4.40;2.50;;;15.40;1.00;;;;;;6172409;28;20439;-54
2022/05/26 02:18:12;;;;;;;3.67;2.20;;;15.40;1.00;;;;;;6179717;28;20236;-53
2022/05/26 02:21:21;;;;;;;2.57;2.47;;;15.50;1.00;;;;;;6186565;28;20331;-52
2022/05/26 02:24:29;;;;;;;2.77;2.57;;;15.50;1.00;;;;;;6194737;28;20717;-51
2022/05/26 02:27:33;;;;;;;2.30;2.30;;;15.60;1.00;;;;;;6189462;28;20319;-51
2022/05/26 02:30:40;;;;;;;2.60;2.40;;;15.60;1.00;;;;;;6186793;28;20267;-50
2022/05/26 02:33:44;;;;;;;2.47;2.40;;;15.60;1.00;;;;;;6188420;28;20248;-51
2022/05/26 02:36:53;;;;;;;2.70;2.57;;;15.60;1.00;;;;;;6184817;28;20395;-51
2022/05/26 02:39:55;;;;;;;3.40;2.53;;;15.60;1.00;;;;;;6176362;28;20241;-50
2022/05/26 02:43:01;;;;;;;2.33;2.23;;;15.60;1.00;;;;;;6195019;28;20383;-51
2022/05/26 02:46:13;;;;;;;2.43;2.33;;;15.60;1.00;;;;;;6185872;28;20236;-51
2022/05/26 02:49:30;;;;;;;2.20;2.10;;;15.70;1.00;;;;;;6178993;28;20260;-51
2022/05/26 02:52:41;;;;;;;2.73;2.20;;;15.70;1.00;;;;;;6186892;28;20228;-50
2022/05/26 02:56:03;;;;;;;2.10;2.10;;;15.70;1.00;;;;;;6202880;28;20831;-51
2022/05/26 02:59:13;;;;;;;2.30;2.10;;;15.70;1.00;;;;;;6184125;28;20331;-51
2022/05/26 03:02:21;;;;;;;5.50;2.10;;;15.80;1.00;;;;;;6194920;28;20251;-51
2022/05/26 03:05:28;;;;;;;2.07;1.90;;;15.80;1.00;;;;;;6178781;28;20236;-51
2022/05/26 03:08:37;;;;;;;2.10;2.00;;;15.80;1.00;;;;;;6187661;28;20328;-51
2022/05/26 03:11:46;;;;;;;2.13;2.00;;;15.90;1.00;;;;;;6191224;28;20239;-50
2022/05/26 03:14:49;;;;;;;2.00;1.90;;;15.90;1.00;;;;;;6188583;28;20250;-52
2022/05/26 03:17:52;;;;;;;2.40;2.30;;;15.90;1.00;;;;;;6183263;28;20278;-52
2022/05/26 03:20:57;;;;;;;2.23;2.23;;;16.00;1.00;;;;;;6188138;28;20409;-50
2022/05/26 03:24:01;;;;;;;2.23;2.23;;;16.00;1.00;;;;;;6186121;28;20538;-51
2022/05/26 03:27:05;;;;;;;2.00;2.00;;;16.00;1.00;;;;;;6192301;28;20335;-50
2022/05/26 03:30:08;;;;;;;2.00;2.00;;;16.00;1.00;;;;;;6189210;28;20325;-51
2022/05/26 03:33:11;;;;;;;2.90;2.70;;;16.00;1.00;;;;;;6166414;28;20314;-52
2022/05/26 03:42:54;;;;;;;2.77;2.10;;;16.10;1.00;;;;;;6178492;28;20228;-52
2022/05/26 03:45:59;;;;;;;2.43;2.23;;;16.10;1.00;;;;;;6152851;28;20242;-49
2022/05/26 03:49:02;;;;;;;3.37;2.40;;;16.10;1.00;;;;;;6180821;28;20614;-53
2022/05/26 03:52:05;;;;;;;2.40;2.30;;;16.10;1.00;;;;;;6180181;28;20243;-51
2022/05/26 03:55:10;;;;;;;2.37;2.20;;;16.20;1.00;;;;;;6201625;28;20338;-51
2022/05/26 03:58:13;;;;;;;2.63;2.10;;;16.30;1.00;;;;;;6186875;28;20816;-51
2022/05/26 04:01:16;;;;;;;2.43;2.23;;;16.20;1.00;;;;;;6181234;28;20535;-51
2022/05/26 04:04:18;;;;;;;2.10;2.07;;;16.20;1.00;;;;;;6180036;28;20764;-51
2022/05/26 04:07:21;;;;;;;2.10;2.10;;;16.30;1.00;;;;;;6185310;28;20247;-52
2022/05/26 04:10:26;;;;;;;2.00;2.00;;;16.30;1.00;;;;;;6184519;28;20234;-50
2022/05/26 04:13:31;;;;;;;2.20;2.20;;;16.30;1.00;;;;;;6184331;28;20274;-53
2022/05/26 04:16:33;;;;;;;2.40;2.30;;;16.30;1.00;;;;;;6177703;28;20385;-51
2022/05/26 04:19:41;;;;;;;2.20;2.20;;;16.30;1.00;;;;;;6178745;28;20231;-51
2022/05/26 04:22:43;;;;;;;2.60;2.40;;;16.20;1.00;;;;;;6193035;28;20231;-52
2022/05/26 04:25:48;;;;;;;2.27;2.13;;;16.30;1.00;;;;;;6184450;28;20716;-51
2022/05/26 04:28:51;;;;;;;2.57;2.47;;;16.30;1.00;;;;;;6195560;28;20327;-51
2022/05/26 04:31:54;;;;;;;2.57;2.40;;;16.30;1.00;;;;;;6188290;28;20744;-50
2022/05/26 04:34:56;;;;;;;2.40;2.30;;;16.30;1.00;;;;;;6174998;28;20541;-51
2022/05/26 04:37:59;;;;;;;2.97;2.50;;;16.30;1.00;;;;;;6184595;28;20722;-51
2022/05/26 04:41:06;;;;;;;2.80;2.60;;;16.30;1.00;;;;;;6174246;28;20723;-52
2022/05/26 04:44:09;;;;;;;2.70;2.60;;;16.40;1.00;;;;;;6182346;28;20241;-51
2022/05/26 04:47:12;;;;;;;2.70;2.50;;;16.40;1.00;;;;;;6184975;28;20503;-51
2022/05/26 04:50:15;;;;;;;2.77;2.60;;;16.40;1.00;;;;;;6166772;28;20350;-50
2022/05/26 04:53:18;;;;;;;2.70;2.50;;;16.50;1.00;;;;;;6192468;28;20317;-51
2022/05/26 04:56:22;;;;;;;4.60;2.80;;;16.50;1.00;;;;;;6189975;28;20295;-51
2022/05/26 04:59:25;;;;;;;2.40;2.40;;;16.60;1.00;;;;;;6185623;28;20259;-51
2022/05/26 05:02:28;;;;;;;2.63;2.43;;;16.60;1.00;;;;;;6177612;28;20363;-50
2022/05/26 05:05:31;;;;;;;2.53;2.50;;;16.70;1.00;;;;;;6190016;28;20239;-52
2022/05/26 05:08:34;;;;;;;3.17;2.83;;;16.80;1.00;;;;;;6193403;28;20360;-51
2022/05/26 05:11:38;;;;;;;2.67;2.33;;;16.80;1.00;;;;;;6181399;28;20248;-51
2022/05/26 05:14:43;;;;;;;3.00;2.90;;;16.80;1.00;;;;;;6186395;28;20236;-51
2022/05/26 05:17:46;;;;;;;4.20;2.63;;;16.80;1.00;;;;;;6189095;28;20633;-51
2022/05/26 05:20:48;;;;;;;2.47;2.37;;;16.70;1.00;;;;;;6180630;28;20303;-52
2022/05/26 05:23:55;;;;;;;2.90;2.70;;;16.70;1.00;;;;;;6193554;28;20724;-52
2022/05/26 05:27:04;;;;;;;2.60;2.60;;;16.70;1.00;;;;;;6197912;28;20270;-51
2022/05/26 05:30:13;;;;;;;2.67;2.57;;;16.80;1.00;;;;;;6192342;28;20793;-52
2022/05/26 05:33:21;;;;;;;2.97;2.77;;;16.90;1.00;;;;;;6190006;28;20322;-51
2022/05/26 05:36:27;;;;;;;3.60;2.97;;;17.10;1.00;;;;;;6193889;28;20251;-50
2022/05/26 05:39:30;;;;;;;3.40;3.20;;;17.20;1.00;;;;;;6191294;28;20274;-50
2022/05/26 05:42:34;;;;;;;3.43;3.10;;;17.40;1.00;;;;;;6190072;28;20987;-53
2022/05/26 05:45:39;;;;;;;3.10;2.90;;;17.60;1.00;;;;;;6189421;28;20244;-50
2022/05/26 05:48:43;;;;;;;3.53;2.93;;;17.80;1.00;;;;;;6186544;28;20298;-52
2022/05/26 05:51:46;;;;;;;4.03;2.90;;;17.80;1.00;;;;;;6187754;28;20272;-52
2022/05/26 05:54:49;;;;;;;3.00;2.90;;;17.60;1.00;;;;;;6181529;28;20794;-51
2022/05/26 05:57:53;;;;;;;4.03;3.40;;;17.50;1.00;;;;;;6194336;28;20244;-51
2022/05/26 06:00:56;;;;;;;5.23;3.20;;;17.40;1.00;;;;;;6186494;28;20309;-51
2022/05/26 06:03:59;;;;;;;3.27;3.10;;;17.50;1.00;;;;;;6193402;28;20235;-51
2022/05/26 06:07:02;;;;;;;3.63;3.33;;;17.60;1.00;;;;;;6188684;28;20235;-56
2022/05/26 06:10:06;;;;;;;3.70;3.50;;;17.70;1.00;;;;;;6184182;28;20314;-51
2022/05/26 06:13:10;;;;;;;7.13;3.70;;;17.50;1.00;;;;;;6159163;28;20369;-46
2022/05/26 06:16:13;;;;;;;3.23;3.17;;;17.40;1.00;;;;;;6185174;28;20428;-51
2022/05/26 06:19:15;;;;;;;3.50;3.30;;;17.30;1.00;;;;;;6183657;28;20250;-51
2022/05/26 06:22:21;;;;;;;3.67;3.57;;;17.40;1.00;;;;;;6187237;28;20388;-51
2022/05/26 06:25:24;;;;;;;3.73;3.43;;;17.50;1.00;;;;;;6198431;28;20224;-50
2022/05/26 06:38:33;;;;;;;4.83;3.80;;;17.40;1.00;;;;;;6167597;28;20384;-51
2022/05/26 06:44:57;;;;;;;3.97;3.67;;;17.50;1.00;;;;;;6193758;28;20551;-51
2022/05/26 06:48:00;;;;;;;4.77;3.67;;;17.40;1.00;;;;;;6189735;28;20252;-52
2022/05/26 06:51:06;;;;;;;4.30;4.00;;;17.50;1.00;;;;;;6186662;28;20314;-50
2022/05/26 06:54:09;;;;;;;4.07;3.77;;;17.60;1.00;;;;;;6187375;28;20235;-49
2022/05/26 06:57:13;;;;;;;3.90;3.70;;;17.60;1.00;;;;;;6189709;28;20614;-50
2022/05/26 07:00:19;;;;;;;4.27;3.87;;;17.60;1.00;;;;;;6181054;28;20382;-50
2022/05/26 07:03:22;;;;;;;4.10;4.00;;;17.60;1.00;;;;;;6180490;28;20300;-51
2022/05/26 07:06:28;;;;;;;4.60;3.80;;;17.30;1.00;;;;;;6182775;28;20232;-51
2022/05/26 07:09:31;;;;;;;4.20;3.90;;;17.30;1.00;;;;;;6183345;28;20886;-52
2022/05/26 07:12:34;;;;;;;4.23;3.83;;;17.20;1.00;;;;;;6180541;28;20721;-51
2022/05/26 07:15:38;;;;;;;4.60;4.10;;;17.20;1.00;;;;;;6181161;28;20301;-51
2022/05/26 07:18:41;;;;;;;5.27;4.30;;;17.10;1.00;;;;;;6184219;28;20319;-50
2022/05/26 07:21:46;;;;;;;5.20;4.77;;;17.00;1.00;;;;;;6178172;28;20241;-50
2022/05/26 07:24:52;;;;;;;4.80;4.40;;;17.00;1.00;;;;;;6184392;28;20228;-51
2022/05/26 07:27:55;;;;;;;4.60;4.30;;;16.80;1.00;;;;;;6183800;28;20239;-50
2022/05/26 07:30:58;;;;;;;4.63;4.23;;;16.80;1.00;;;;;;6180522;28;20334;-50
2022/05/26 07:34:01;;;;;;;5.00;4.57;;;16.70;1.00;;;;;;6182699;28;20232;-51
2022/05/26 07:43:48;;;;;;;6.67;6.20;;;16.40;1.00;;;;;;6189456;28;20670;-50
2022/05/26 07:46:56;;;;;;;6.40;6.10;;;16.20;1.00;;;;;;6182516;28;20240;-52
2022/05/26 07:49:58;;;;;;;5.57;5.37;;;16.10;1.00;;;;;;6176775;28;20232;-51
2022/05/26 07:53:02;;;;;;;6.20;5.90;;;15.90;1.00;;;;;;6173180;28;20342;-54
2022/05/26 07:56:06;;;;;;;6.13;5.77;;;15.70;1.00;;;;;;6179444;28;20306;-51
2022/05/26 07:59:09;;;;;;;6.10;5.80;;;15.70;1.00;;;;;;6181521;28;20741;-52
2022/05/26 08:02:13;;;;;;;6.70;6.30;;;15.70;1.00;;;;;;6171349;28;20235;-55
2022/05/26 08:05:16;;;;;;;7.17;6.70;;;15.70;5.60;;;;;;6170094;28;20396;-52
2022/05/26 08:08:19;;;;;;;7.13;6.73;;;15.80;6.50;;;;;;6171914;28;20248;-52
2022/05/26 08:11:21;;;;;;;7.20;6.60;;;15.80;17.20;;;;;;6179382;28;20323;-51
2022/05/26 08:14:25;;;;;;;6.53;6.00;;;15.80;17.20;;;;;;6179689;28;20828;-51
2022/05/26 08:17:29;;;;;;;6.23;5.70;;;15.90;17.50;;;;;;6181729;28;20250;-51
2022/05/26 08:20:32;;;;;;;6.23;5.67;;;16.00;12.50;;;;;;6176933;28;20547;-51
2022/05/26 08:23:35;;;;;;;5.20;4.80;;;16.30;10.40;;;;;;6183875;28;20251;-51
2022/05/26 08:26:38;;;;;;;4.80;4.40;;;16.50;1.00;;;;;;6187291;28;20244;-51
2022/05/26 08:29:41;;;;;;;4.23;4.03;;;16.80;1.00;;;;;;6183585;28;20240;-51
2022/05/26 08:32:45;;;;;;;4.47;4.27;;;16.90;1.00;;;;;;6179795;28;20786;-52
2022/05/26 08:35:47;;;;;;;4.00;3.90;;;17.00;1.00;;;;;;6187048;28;20239;-48
2022/05/26 08:38:50;;;;;;;4.33;4.07;;;17.10;1.00;;;;;;6183348;28;20330;-48
2022/05/26 08:41:54;;;;;;;3.97;3.87;;;17.20;1.00;;;;;;6185339;28;20252;-51
2022/05/26 08:45:01;;;;;;;3.20;3.00;;;17.20;1.00;;;;;;6192354;28;20480;-56
2022/05/26 08:48:06;;;;;;;3.20;3.00;;;17.40;1.00;;;;;;6185123;28;20721;-51
2022/05/26 08:51:12;;;;;;;3.17;2.97;;;17.60;1.00;;;;;;6191088;28;20686;-51
2022/05/26 08:54:24;;;;;;;2.90;2.80;;;17.80;1.00;;;;;;6197103;28;20326;-51
2022/05/26 08:57:32;;;;;;;2.37;2.27;;;18.10;1.00;;;;;;6191162;28;20306;-51
2022/05/26 09:00:37;;;;;;;2.60;2.50;;;18.30;1.00;;;;;;6185308;28;20327;-51
2022/05/26 09:03:41;;;;;;;2.10;2.10;;;18.50;1.00;;;;;;6185270;28;20247;-50
2022/05/26 09:13:39;;;;;;;1.83;1.83;;;18.80;1.00;;;;;;6184390;28;20398;-51
2022/05/26 09:16:43;;;;;;;2.07;1.97;;;19.10;1.00;;;;;;6182660;28;20819;-52
2022/05/26 09:19:53;;;;;;;1.97;1.87;;;19.40;1.00;;;;;;6178238;28;20238;-51
2022/05/26 09:23:08;;;;;;;1.80;1.80;;;19.40;1.00;;;;;;6179189;28;20247;-52
2022/05/26 09:26:16;;;;;;;2.20;2.00;;;19.40;1.00;;;;;;6172443;28;20322;-51
2022/05/26 09:29:25;;;;;;;2.03;2.00;;;19.40;1.00;;;;;;6174612;28;20267;-51
2022/05/26 09:32:31;;;;;;;1.90;1.90;;;19.60;1.00;;;;;;6185141;28;20231;-49
2022/05/26 09:35:35;;;;;;;2.00;1.90;;;19.70;1.00;;;;;;6178625;28;20263;-50
2022/05/26 09:38:38;;;;;;;2.17;2.00;;;19.90;1.00;;;;;;6184810;28;20330;-49
2022/05/26 09:41:44;;;;;;;1.80;1.70;;;19.90;1.00;;;;;;6181298;28;20259;-53
2022/05/26 09:44:54;;;;;;;2.07;1.97;;;19.90;1.00;;;;;;6182262;28;20387;-53
2022/05/26 09:48:01;;;;;;;2.23;2.13;;;19.60;1.00;;;;;;6181477;28;20324;-51
2022/05/26 09:51:12;;;;;;;2.20;2.10;;;19.20;1.00;;;;;;6172316;28;20245;-50
2022/05/26 09:54:25;;;;;;;3.63;2.20;;;19.30;1.00;;;;;;6188883;28;20364;-51
2022/05/26 09:57:29;;;;;;;2.17;2.07;;;19.50;1.00;;;;;;6167161;28;20371;-51
2022/05/26 10:00:36;;;;;;;1.80;1.80;;;19.60;1.00;;;;;;6180841;28;20408;-51
2022/05/26 10:03:52;;;;;;;1.90;1.90;;;19.50;1.00;;;;;;6187359;28;20240;-52
2022/05/26 10:07:02;;;;;;;2.20;2.20;;;19.50;1.00;;;;;;6189037;28;20394;-51
2022/05/26 10:10:12;;;;;;;2.23;2.13;;;19.70;1.00;;;;;;6185646;28;20604;-51
2022/05/26 10:13:28;;;;;;;2.20;2.10;;;19.70;1.00;;;;;;6191888;28;20235;-50
2022/05/26 10:16:39;;;;;;;2.47;2.37;;;19.60;1.00;;;;;;6192935;28;20240;-49
2022/05/26 10:20:01;;;;;;;4.10;2.60;;;19.90;1.00;;;;;;6184073;28;20236;-51
2022/05/26 10:23:27;;;;;;;2.47;2.23;;;20.00;1.00;;;;;;6185841;28;20283;-49
2022/05/26 10:26:39;;;;;;;3.27;2.40;;;19.90;1.00;;;;;;6177479;28;20252;-51
2022/05/26 10:29:56;;;;;;;2.10;2.10;;;19.70;1.00;;;;;;6178336;28;20563;-49
2022/05/26 10:33:16;;;;;;;3.20;2.17;;;19.60;1.00;;;;;;6190258;28;20259;-52
2022/05/26 10:36:24;;;;;;;2.50;2.40;;;19.50;1.00;;;;;;6189659;28;20629;-50
2022/05/26 10:39:40;;;;;;;2.53;2.33;;;19.30;1.00;;;;;;6190997;28;20312;-54
2022/05/26 10:42:48;;;;;;;3.43;2.33;;;19.30;1.00;;;;;;6185909;28;20270;-51
2022/05/26 10:45:52;;;;;;;4.50;2.50;;;19.30;1.00;;;;;;6191996;28;20573;-50
2022/05/26 10:49:09;;;;;;;2.53;2.37;;;19.20;1.00;;;;;;6186171;28;20254;-49
2022/05/26 10:52:16;;;;;;;2.60;2.50;;;19.20;1.00;;;;;;6183004;28;20758;-52
2022/05/26 10:55:26;;;;;;;3.77;2.80;;;19.20;1.00;;;;;;6183620;28;20236;-51
2022/05/26 10:58:34;;;;;;;3.53;2.60;;;19.50;1.00;;;;;;6170378;28;20453;-51
2022/05/26 11:01:44;;;;;;;2.73;2.53;;;19.80;1.00;;;;;;6182891;28;20383;-51
2022/05/26 11:04:56;;;;;;;3.10;2.70;;;20.00;1.00;;;;;;6178057;28;20382;-50
2022/05/26 11:08:13;;;;;;;2.97;2.70;;;20.20;1.00;;;;;;6187600;28;20337;-51
2022/05/26 11:11:23;;;;;;;3.07;2.70;;;20.20;1.00;;;;;;6181176;28;20224;-51
2022/05/26 11:18:00;;;;;;;3.03;2.70;;;20.30;1.00;;;;;;6183339;28;20240;-50
2022/05/26 11:21:03;;;;;;;3.00;2.90;;;20.30;1.00;;;;;;6170957;28;20432;-51
2022/05/26 11:24:09;;;;;;;2.97;2.77;;;20.30;1.00;;;;;;6192444;28;20306;-51
2022/05/26 11:27:19;;;;;;;3.10;2.90;;;20.30;1.00;;;;;;6195067;28;20508;-50
2022/05/26 11:37:36;;;;;;;3.33;3.23;;;20.40;1.00;;;;;;6193804;28;20795;-49
2022/05/26 11:40:53;;;;;;;2.77;2.57;;;20.20;1.00;;;;;;6172929;28;20229;-51
2022/05/26 11:44:03;;;;;;;2.93;2.83;;;20.10;1.00;;;;;;6180388;28;20240;-51
2022/05/26 11:47:34;;;;;;;2.80;2.60;;;20.10;1.00;;;;;;6193465;28;20652;-49
2022/05/26 11:50:57;;;;;;;3.30;2.90;;;20.00;1.00;;;;;;6173534;28;20256;-51
2022/05/26 11:54:00;;;;;;;2.93;2.77;;;19.80;1.00;;;;;;6185682;28;20246;-52
2022/05/26 11:57:34;;;;;;;2.53;2.37;;;19.60;1.00;;;;;;6184277;28;20403;-52
2022/05/26 12:00:43;;;;;;;3.60;2.97;;;19.40;1.00;;;;;;6180084;28;20371;-51
2022/05/26 12:03:53;;;;;;;3.87;2.47;;;19.40;1.00;;;;;;6186988;28;20544;-49
2022/05/26 12:06:59;;;;;;;3.00;2.70;;;19.70;1.00;;;;;;6184409;28;20333;-51
2022/05/26 12:10:17;;;;;;;3.83;2.90;;;20.00;1.00;;;;;;6186105;28;20494;-51
2022/05/26 12:13:27;;;;;;;3.67;2.63;;;20.40;1.00;;;;;;6188311;28;20633;-50
2022/05/26 12:16:33;;;;;;;5.40;2.53;;;20.80;1.00;;;;;;6182495;28;20652;-50
2022/05/26 12:19:43;;;;;;;3.13;2.50;;;20.90;1.00;;;;;;6185630;28;20235;-50
2022/05/26 12:23:23;;;;;;;2.93;2.73;;;21.10;1.00;;;;;;6194529;28;20378;-51
2022/05/26 12:26:46;;;;;;;3.33;2.80;;;21.10;1.00;;;;;;6195989;28;20228;-51
2022/05/26 12:30:05;;;;;;;3.73;2.60;;;21.00;1.00;;;;;;6190345;28;20242;-51
2022/05/26 12:33:41;;;;;;;5.63;2.43;;;21.20;1.00;;;;;;6186417;28;20602;-50
2022/05/26 12:36:56;;;;;;;3.10;2.80;;;21.40;1.00;;;;;;6186810;28;20437;-51
2022/05/26 12:40:28;;;;;;;3.20;2.73;;;21.30;1.00;;;;;;6180144;28;20231;-51
2022/05/26 12:43:54;;;;;;;3.23;2.70;;;21.00;1.00;;;;;;6184610;28;20533;-52
2022/05/26 12:47:09;;;;;;;5.27;4.87;;;20.70;1.00;;;;;;6202911;28;20609;-52
2022/05/26 12:50:16;;;;;;;8.30;4.87;;;20.60;1.00;;;;;;6182396;28;20682;-52
2022/05/26 12:53:26;;;;;;;3.90;3.07;;;21.00;1.00;;;;;;6203016;28;20231;-52
2022/05/26 12:56:38;;;;;;;3.27;2.63;;;21.20;1.00;;;;;;6199705;28;20338;-51
2022/05/26 12:59:41;;;;;;;3.37;2.63;;;21.10;1.00;;;;;;6185229;28;20787;-53
2022/05/26 13:02:49;;;;;;;2.90;2.70;;;21.30;1.00;;;;;;6183556;28;20323;-52
2022/05/26 13:05:57;;;;;;;2.43;2.33;;;21.50;1.00;;;;;;6187929;28;20840;-51
2022/05/26 13:09:07;;;;;;;2.90;2.70;;;21.50;1.00;;;;;;6186303;28;20239;-51
2022/05/26 13:12:11;;;;;;;3.20;2.47;;;21.20;1.00;;;;;;6180157;28;20289;-52
2022/05/26 13:15:22;;;;;;;2.93;2.50;;;21.00;1.00;;;;;;6191830;28;20241;-52
2022/05/26 13:18:25;;;;;;;4.93;2.90;;;20.80;1.00;;;;;;6185583;28;20374;-53
2022/05/26 13:21:31;;;;;;;2.97;2.70;;;20.70;1.00;;;;;;6186284;28;20293;-51
2022/05/26 13:24:35;;;;;;;3.50;2.53;;;20.60;1.00;;;;;;6180077;28;20289;-51
2022/05/26 13:27:47;;;;;;;2.57;2.30;;;20.50;1.00;;;;;;6189785;28;20258;-51
2022/05/26 13:34:15;;;;;;;6.17;2.40;;;20.90;1.00;;;;;;6183741;28;20310;-53
2022/05/26 13:37:22;;;;;;;6.53;2.47;;;21.00;1.00;;;;;;6180578;28;20246;-51
2022/05/26 13:40:29;;;;;;;4.13;2.60;;;21.00;1.00;;;;;;6182308;28;20735;-53
2022/05/26 13:43:36;;;;;;;3.23;2.20;;;20.80;1.00;;;;;;6198327;28;20278;-51
2022/05/26 13:46:43;;;;;;;3.53;2.60;;;20.70;1.00;;;;;;6194387;28;20268;-51
2022/05/26 13:50:01;;;;;;;7.17;2.37;;;20.70;1.00;;;;;;6187642;28;20364;-52
2022/05/26 13:53:06;;;;;;;5.83;2.67;;;20.70;1.00;;;;;;6198110;28;20631;-51
2022/05/26 13:56:15;;;;;;;2.53;2.43;;;20.70;1.00;;;;;;6191243;28;20602;-53
2022/05/26 13:59:18;;;;;;;1.90;1.80;;;20.90;1.00;;;;;;6192198;28;20239;-52
2022/05/26 14:02:24;;;;;;;2.30;2.10;;;21.20;1.00;;;;;;6195690;28;20446;-53
2022/05/26 14:05:28;;;;;;;2.67;2.30;;;21.40;1.00;;;;;;6186297;28;20248;-51
2022/05/26 14:08:31;;;;;;;5.70;2.40;;;21.30;1.00;;;;;;6186398;28;20250;-52
2022/05/26 14:11:45;;;;;;;2.40;2.30;;;21.20;1.00;;;;;;6194844;28;20587;-52
2022/05/26 14:14:47;;;;;;;2.93;2.27;;;21.30;1.00;;;;;;6194151;28;20260;-52
2022/05/26 14:17:53;;;;;;;6.33;1.90;;;21.50;1.00;;;;;;6191103;28;20327;-53
2022/05/26 14:21:04;;;;;;;2.40;2.20;;;21.80;1.00;;;;;;6191032;28;20239;-52
2022/05/26 14:24:20;;;;;;;6.20;2.10;;;22.00;1.00;;;;;;6188491;28;22681;-52
2022/05/26 14:27:27;;;;;;;2.23;2.03;;;22.10;1.00;;;;;;6191683;28;20251;-49
2022/05/26 14:30:38;;;;;;;4.83;1.97;;;21.90;1.00;;;;;;6182737;28;20713;-51
2022/05/26 14:33:41;;;;;;;5.90;2.33;;;21.70;1.00;;;;;;6187595;28;20247;-52
2022/05/26 14:36:44;;;;;;;2.20;2.10;;;21.70;1.00;;;;;;6197419;28;20236;-51
2022/05/26 14:39:48;;;;;;;4.40;2.30;;;21.80;1.00;;;;;;6182356;28;20236;-53
2022/05/26 14:42:53;;;;;;;3.47;2.60;;;21.80;1.00;;;;;;6200570;28;20236;-52
2022/05/26 14:45:56;;;;;;;5.00;2.10;;;22.00;1.00;;;;;;6188073;28;20903;-52
2022/05/26 14:48:59;;;;;;;2.60;2.20;;;22.10;1.00;;;;;;6190642;28;20248;-52
2022/05/26 14:52:02;;;;;;;4.73;2.20;;;22.00;1.00;;;;;;6190909;28;20236;-53
2022/05/26 14:55:29;;;;;;;4.57;2.40;;;21.80;1.00;;;;;;6201795;28;20418;-51
2022/05/26 14:58:33;;;;;;;1.87;1.80;;;21.50;1.00;;;;;;6189350;28;20239;-52
2022/05/26 15:01:36;;;;;;;2.90;2.10;;;21.20;1.00;;;;;;6192917;28;20366;-52
2022/05/26 15:04:39;;;;;;;3.37;2.43;;;21.10;1.00;;;;;;6183246;28;20740;-52
2022/05/26 15:07:44;;;;;;;4.43;2.20;;;21.00;1.00;;;;;;6184967;28;20417;-52
2022/05/26 15:10:46;;;;;;;3.07;2.00;;;21.00;1.00;;;;;;6182548;28;20316;-53
2022/05/26 15:13:52;;;;;;;2.50;2.03;;;21.10;1.00;;;;;;6192177;28;20243;-53
2022/05/26 15:16:58;;;;;;;6.53;1.97;;;21.20;1.00;;;;;;6187410;28;20330;-53
2022/05/26 15:20:02;;;;;;;4.83;2.10;;;21.20;1.00;;;;;;6178465;28;20235;-52
2022/05/26 15:23:05;;;;;;;2.33;2.00;;;21.30;1.00;;;;;;6185744;28;20243;-51
2022/05/26 15:26:09;;;;;;;4.17;2.00;;;21.10;1.00;;;;;;6184338;28;20243;-52
2022/05/26 15:29:13;;;;;;;1.93;1.83;;;21.10;1.00;;;;;;6187494;28;20239;-53
2022/05/26 15:32:28;;;;;;;2.20;2.10;;;21.40;1.00;;;;;;6201687;28;20232;-52
2022/05/26 15:35:31;;;;;;;3.80;2.20;;;21.40;1.00;;;;;;6167491;28;20302;-53
2022/05/26 15:38:37;;;;;;;3.23;2.13;;;21.30;1.00;;;;;;6183507;28;20240;-52
2022/05/26 15:41:40;;;;;;;2.93;2.20;;;21.20;1.00;;;;;;6171073;28;20236;-51
2022/05/26 15:44:44;;;;;;;3.07;2.87;;;20.90;1.00;;;;;;6155868;28;20294;-57
2022/05/26 15:47:47;;;;;;;2.37;2.20;;;20.80;1.00;;;;;;6152923;28;20654;-53
2022/05/26 15:50:50;;;;;;;2.60;2.40;;;20.50;1.00;;;;;;6151124;28;20271;-53
2022/05/26 15:53:53;;;;;;;4.67;2.20;;;20.40;1.00;;;;;;6150835;28;20235;-53
2022/05/26 15:56:57;;;;;;;1.77;1.67;;;20.50;1.00;;;;;;6151678;28;20232;-49
2022/05/26 16:00:02;;;;;;;2.00;1.87;;;20.50;1.00;;;;;;6150647;28;20247;-52
2022/05/26 16:03:05;;;;;;;4.47;2.47;;;20.50;1.00;;;;;;6144137;28;20545;-50
2022/05/26 16:06:08;;;;;;;2.80;2.20;;;20.50;1.00;;;;;;6152939;28;20236;-51
2022/05/26 16:09:12;;;;;;;4.90;1.90;;;20.40;1.00;;;;;;6147893;28;20302;-52
2022/05/26 16:12:15;;;;;;;2.37;2.03;;;20.40;1.00;;;;;;6154390;28;20377;-52
2022/05/26 16:15:23;;;;;;;2.90;1.60;;;20.40;1.00;;;;;;6157582;28;20630;-54
2022/05/26 16:18:26;;;;;;;2.10;2.00;;;20.40;1.00;;;;;;6159657;28;20248;-58
2022/05/26 16:21:29;;;;;;;2.30;2.20;;;20.50;1.00;;;;;;6148108;28;20236;-53
2022/05/26 16:24:35;;;;;;;2.10;2.00;;;20.50;1.00;;;;;;6154217;28;20282;-54
2022/05/26 16:27:38;;;;;;;2.37;2.20;;;20.60;1.00;;;;;;6157035;28;20971;-53
2022/05/26 16:30:42;;;;;;;2.17;2.07;;;20.50;1.00;;;;;;6182324;28;20318;-51
2022/05/26 16:33:45;;;;;;;3.93;1.90;;;20.40;1.00;;;;;;6179271;28;20363;-52
2022/05/26 16:36:54;;;;;;;2.57;2.10;;;20.30;1.00;;;;;;6175215;28;20798;-53
2022/05/26 16:39:57;;;;;;;7.13;2.37;;;20.20;1.00;;;;;;6181343;28;20331;-50
2022/05/26 16:43:00;;;;;;;7.93;2.43;;;20.00;1.00;;;;;;6183837;28;20236;-51
2022/05/26 16:46:05;;;;;;;2.13;2.03;;;20.00;1.00;;;;;;6184449;28;20239;-50
2022/05/26 16:49:09;;;;;;;3.67;2.40;;;20.00;1.00;;;;;;6175622;28;20232;-51
2022/05/26 16:52:11;;;;;;;2.47;2.27;;;19.80;1.00;;;;;;6184436;28;20257;-51
2022/05/26 16:55:15;;;;;;;2.40;2.20;;;19.90;1.00;;;;;;6172531;28;20358;-52
2022/05/26 16:58:20;;;;;;;2.77;2.40;;;19.90;1.00;;;;;;6179598;28;20243;-52
2022/05/26 17:01:24;;;;;;;2.43;2.27;;;19.80;1.00;;;;;;6180677;28;20319;-54
2022/05/26 17:04:27;;;;;;;4.83;2.37;;;19.80;1.00;;;;;;6179728;28;20236;-52
2022/05/26 17:07:30;;;;;;;3.50;2.20;;;19.80;1.00;;;;;;6175967;28;20387;-52
2022/05/26 17:10:33;;;;;;;4.17;2.27;;;19.80;1.00;;;;;;6181640;28;20795;-52
2022/05/26 17:23:58;;;;;;;2.47;2.30;;;19.90;1.00;;;;;;6116738;28;20389;-52